Terminal Aerodrome Forecast
Issued by NWS New Orleans/Baton Rouge, LA

Home | Current Version | Previous Version | Text Only | Print | Product List | Glossary On
Versions: 1 2 3 4 5 6 7 8 9 10 11 12 13 14 15 16 17 18
000
FTUS44 KLIX 300520
TAFBTR
TAF
KBTR 300520Z 3006/3106 00000KT P6SM SKC
     FM301200 VRB03KT P6SM BKN100
     FM301600 00000KT P6SM BKN130 PROB30 3017/3023 VRB15KT 2SM TSRA
      BKN045CB
     FM310000 VRB03KT P6SM BKN130=

USA.gov is the U.S. government's official web portal to all federal, state and local government web resources and services.